KDVT/DVT METAR and TAF weather

Enter ICAO airport designator
Station Type Date Time Source
KDVT METAR 2020/01/28 04:53 UTC NOAA

KDVT 280453Z AUTO 36007KT 10SM CLR 13/00 A3011 RMK AO2 SLP187 T01280000


Station Type Date Time Source
KDVT Decoded METAR 2020/01/28 04:53 UTC NOAA

PHOENIX-DEER VALLEY MUN, AZ, United States (KDVT) 33-41N 112-04W 443M
Jan 27, 2020 - 11:53 PM EST / 2020.01.28 0453 UTC
Wind: from the N (360 degrees) at 8 MPH (7 KT):0
Visibility: 10 mile(s):0
Sky conditions: clear
Temperature: 55.0 F (12.8 C)
Dew Point: 32.0 F (0.0 C)
Relative Humidity: 41%
Pressure (altimeter): 30.11 in. Hg (1019 hPa)
ob: KDVT 280453Z AUTO 36007KT 10SM CLR 13/00 A3011 RMK AO2 SLP187 T01280000
cycle: 5

Station Type Date Time Source
KDVT TAF 2020/01/27 18:22 UTC NOAA

TAF KDVT 271720Z 2718/2818 28005KT P6SM FEW090
FM272100 26010KT P6SM FEW100
FM280200 VRB03KT P6SM FEW250

Example: see airport list